Time;durP1;ratioP1;P1;durP2;ratioP2;P2;SDS_P1;SDS_P2;PMS_P1;PMS_P2;Temp;Humidity;BMP_temperature;BMP_pressure;BME280_temperature;BME280_humidity;BME280_pressure;Samples;Min_cycle;Max_cycle;Signal;HPM_P1;HPM_P2
2022/03/09 00:00:20;;;;;;;;;;;0.70;99.90;;;;;;4961500;28;20339;-76
2022/03/09 00:02:45;;;;;;;;;;;0.60;99.90;;;;;;4961917;28;20016;-76
2022/03/09 00:05:11;;;;;;;;;;;0.70;99.90;;;;;;4961978;28;20277;-76
2022/03/09 00:07:37;;;;;;;;;;;0.60;99.90;;;;;;4977462;28;20145;-76
2022/03/09 00:10:03;;;;;;;;;;;0.60;99.90;;;;;;4962048;28;19922;-76
2022/03/09 00:12:29;;;;;;;;;;;0.50;99.90;;;;;;4977462;28;20017;-76
2022/03/09 00:14:54;;;;;;;;;;;0.40;99.90;;;;;;4976956;28;19976;-76
2022/03/09 00:17:20;;;;;;;;;;;0.40;99.90;;;;;;4961840;28;19981;-75
2022/03/09 00:19:45;;;;;;;;;;;0.40;99.90;;;;;;4961474;28;20543;-76
2022/03/09 00:22:11;;;;;;;;;;;0.40;99.90;;;;;;4961112;28;19922;-76
2022/03/09 00:24:36;;;;;;;;;;;0.40;99.90;;;;;;4961123;28;19930;-76
2022/03/09 00:27:02;;;;;;;;;;;0.40;99.90;;;;;;4960978;28;20374;-76
2022/03/09 00:29:28;;;;;;;;;;;0.30;99.90;;;;;;4961407;28;19922;-75
2022/03/09 00:31:53;;;;;;;;;;;0.30;99.90;;;;;;4960080;28;20162;-76
2022/03/09 00:34:19;;;;;;;;;;;0.30;99.90;;;;;;4960765;28;19969;-76
2022/03/09 00:36:45;;;;;;;;;;;0.30;99.90;;;;;;4976984;28;20284;-76
2022/03/09 00:39:10;;;;;;;;;;;0.30;99.90;;;;;;4976369;28;19980;-76
2022/03/09 00:41:36;;;;;;;;;;;0.20;99.90;;;;;;4977393;28;19972;-76
2022/03/09 00:44:01;;;;;;;;;;;0.10;99.90;;;;;;4977990;28;19933;-76
2022/03/09 00:46:27;;;;;;;;;;;0.10;99.90;;;;;;4965644;28;19979;-76
2022/03/09 00:48:53;;;;;;;;;;;0.10;99.90;;;;;;4980008;28;20008;-76
2022/03/09 00:51:18;;;;;;;;;;;0.10;99.90;;;;;;4979256;28;19944;-75
2022/03/09 00:53:44;;;;;;;;;;;0.10;99.90;;;;;;4978032;28;19922;-76
2022/03/09 00:56:10;;;;;;;;;;;0.10;99.90;;;;;;4978793;28;19926;-76
2022/03/09 00:58:35;;;;;;;;;;;0.10;99.90;;;;;;4978646;28;19928;-76
2022/03/09 01:01:01;;;;;;;;;;;0.10;99.90;;;;;;4978334;28;20025;-75
2022/03/09 01:03:26;;;;;;;;;;;0.20;99.90;;;;;;4961806;28;19921;-76
2022/03/09 01:05:52;;;;;;;;;;;0.20;99.90;;;;;;4962164;28;20481;-76
2022/03/09 01:08:18;;;;;;;;;;;0.20;99.90;;;;;;4961372;28;20036;-76
2022/03/09 01:10:43;;;;;;;;;;;0.30;99.90;;;;;;4961575;28;19929;-76
2022/03/09 01:13:09;;;;;;;;;;;0.30;99.90;;;;;;4961001;28;19953;-75
2022/03/09 01:15:34;;;;;;;;;;;0.30;99.90;;;;;;4961744;28;20021;-76
2022/03/09 01:18:00;;;;;;;;;;;0.30;99.90;;;;;;4961253;28;20393;-76
2022/03/09 01:20:25;;;;;;;;;;;0.20;99.90;;;;;;4961245;28;19922;-75
2022/03/09 01:22:52;;;;;;;;;;;0.10;99.90;;;;;;4960567;28;19963;-75
2022/03/09 01:25:18;;;;;;;;;;;0.10;99.90;;;;;;4962692;28;19926;-76
2022/03/09 01:27:44;;;;;;;;;;;0.10;99.90;;;;;;4980534;28;19921;-75
2022/03/09 01:30:10;;;;;;;;;;;0.00;99.90;;;;;;4979902;28;20012;-76
2022/03/09 01:32:35;;;;;;;;;;;0.00;99.90;;;;;;4964099;28;20012;-76
2022/03/09 01:35:01;;;;;;;;;;;0.00;99.90;;;;;;4964736;28;19960;-76
2022/03/09 01:37:27;;;;;;;;;;;0.00;99.90;;;;;;4980544;28;19922;-76
2022/03/09 01:39:52;;;;;;;;;;;0.00;99.90;;;;;;4963875;28;20399;-76
2022/03/09 01:42:18;;;;;;;;;;;0.00;98.30;;;;;;4980393;28;19922;-76
2022/03/09 01:44:44;;;;;;;;;;;0.00;99.80;;;;;;4979746;28;19932;-74
2022/03/09 01:47:09;;;;;;;;;;;0.00;99.90;;;;;;4980401;28;20311;-76
2022/03/09 01:49:36;;;;;;;;;;;0.00;99.90;;;;;;4980239;28;19921;-76
2022/03/09 01:52:02;;;;;;;;;;;-0.10;99.90;;;;;;4963935;28;19929;-75
2022/03/09 01:54:28;;;;;;;;;;;-0.20;99.90;;;;;;4980168;28;19922;-76
2022/03/09 01:56:54;;;;;;;;;;;-0.30;99.90;;;;;;4979987;28;19922;-76
2022/03/09 01:59:20;;;;;;;;;;;-0.20;99.90;;;;;;4980612;28;19925;-75
2022/03/09 02:01:46;;;;;;;;;;;-0.30;99.90;;;;;;4980466;28;20373;-76
2022/03/09 02:04:12;;;;;;;;;;;-0.30;99.90;;;;;;4974040;28;19925;-76
2022/03/09 02:06:38;;;;;;;;;;;-0.30;99.90;;;;;;4964374;28;19988;-76
2022/03/09 02:11:50;;;;;;;;;;;-0.30;99.90;;;;;;4979760;28;19980;-76
2022/03/09 02:14:35;;;;;;;;;;;-0.20;99.90;;;;;;4980134;28;19922;-76
2022/03/09 02:17:02;;;;;;;;;;;-0.30;99.90;;;;;;4980340;28;19926;-75
2022/03/09 02:19:28;;;;;;;;;;;-0.40;99.90;;;;;;4979478;28;20385;-76
2022/03/09 02:22:06;;;;;;;;;;;-0.40;99.90;;;;;;4979474;28;19969;-76
2022/03/09 02:24:32;;;;;;;;;;;-0.40;99.90;;;;;;4979133;28;19926;-76
2022/03/09 02:26:58;;;;;;;;;;;-0.40;99.90;;;;;;4963230;28;19928;-76
2022/03/09 02:29:23;;;;;;;;;;;-0.50;99.90;;;;;;4963633;28;19977;-76
2022/03/09 02:31:49;;;;;;;;;;;-0.50;99.90;;;;;;4963013;28;19932;-76
2022/03/09 02:34:14;;;;;;;;;;;-0.50;99.90;;;;;;4962737;28;19922;-76
2022/03/09 02:36:40;;;;;;;;;;;-0.50;99.90;;;;;;4961398;28;19922;-76
2022/03/09 02:39:05;;;;;;;;;;;-0.50;99.90;;;;;;4978451;28;19926;-76
2022/03/09 02:41:33;;;;;;;;;;;-0.50;99.90;;;;;;4978314;28;19929;-75
2022/03/09 02:44:02;;;;;;;;;;;-0.60;99.90;;;;;;4961589;28;20029;-76
2022/03/09 02:46:28;;;;;;;;;;;-0.60;99.90;;;;;;4978584;28;19928;-76
2022/03/09 02:48:53;;;;;;;;;;;-0.60;99.90;;;;;;4961780;28;19922;-75
2022/03/09 02:51:19;;;;;;;;;;;-0.70;99.90;;;;;;4961795;28;19936;-76
2022/03/09 02:53:44;;;;;;;;;;;-0.70;99.90;;;;;;4961782;28;19929;-76
2022/03/09 02:56:10;;;;;;;;;;;-0.70;99.90;;;;;;4961559;28;19922;-76
2022/03/09 02:58:35;;;;;;;;;;;-0.70;99.90;;;;;;4978267;28;19929;-75
2022/03/09 03:01:01;;;;;;;;;;;-0.70;99.90;;;;;;4979043;28;19937;-76
2022/03/09 03:03:26;;;;;;;;;;;-0.80;99.90;;;;;;4978103;28;20027;-76
2022/03/09 03:05:52;;;;;;;;;;;-0.80;99.90;;;;;;4977914;28;19932;-76
2022/03/09 03:08:18;;;;;;;;;;;-0.80;99.90;;;;;;4977925;28;20028;-75
2022/03/09 03:10:43;;;;;;;;;;;-0.80;99.90;;;;;;4977629;28;20029;-76
2022/03/09 03:13:09;;;;;;;;;;;-0.70;99.90;;;;;;4961623;28;19929;-76
2022/03/09 03:15:34;;;;;;;;;;;-0.70;99.90;;;;;;4961852;28;19922;-76
2022/03/09 03:18:01;;;;;;;;;;;-0.80;99.90;;;;;;4978158;28;19972;-75
2022/03/09 03:20:27;;;;;;;;;;;-0.80;99.90;;;;;;4977629;28;20365;-76
2022/03/09 03:22:52;;;;;;;;;;;-0.80;99.90;;;;;;4961370;28;19922;-76
2022/03/09 03:25:18;;;;;;;;;;;-0.90;99.90;;;;;;4978096;28;20296;-75
2022/03/09 03:27:44;;;;;;;;;;;-0.90;99.90;;;;;;4962443;28;19922;-76
2022/03/09 03:30:10;;;;;;;;;;;-0.90;99.90;;;;;;4979387;28;19926;-76
2022/03/09 03:32:35;;;;;;;;;;;-0.90;99.90;;;;;;4961249;28;19929;-76
2022/03/09 03:35:01;;;;;;;;;;;-0.90;99.90;;;;;;4961220;28;19922;-76
2022/03/09 03:37:26;;;;;;;;;;;-1.00;99.90;;;;;;4961526;28;20012;-76
2022/03/09 03:39:52;;;;;;;;;;;-1.00;99.90;;;;;;4961684;28;20352;-76
2022/03/09 03:42:18;;;;;;;;;;;-1.00;99.90;;;;;;4961416;28;19922;-76
2022/03/09 03:44:43;;;;;;;;;;;-1.10;99.90;;;;;;4960780;28;20136;-76
2022/03/09 03:47:09;;;;;;;;;;;-1.00;99.90;;;;;;4960662;28;19922;-76
2022/03/09 03:49:35;;;;;;;;;;;-1.20;99.90;;;;;;4960751;28;19980;-75
2022/03/09 03:52:00;;;;;;;;;;;-1.20;99.90;;;;;;4977207;28;19972;-76
2022/03/09 03:54:26;;;;;;;;;;;-1.20;99.90;;;;;;4977155;28;19929;-76
2022/03/09 03:56:51;;;;;;;;;;;-1.20;99.90;;;;;;4976803;28;19984;-75
2022/03/09 03:59:17;;;;;;;;;;;-1.30;99.90;;;;;;4962237;28;19928;-76
2022/03/09 04:01:42;;;;;;;;;;;-1.30;99.90;;;;;;4978087;28;20319;-76
2022/03/09 04:04:08;;;;;;;;;;;-1.30;99.90;;;;;;4961787;28;20043;-76
2022/03/09 04:06:33;;;;;;;;;;;-1.30;99.90;;;;;;4961792;28;19944;-75
2022/03/09 04:08:59;;;;;;;;;;;-1.30;99.90;;;;;;4962094;28;19952;-76
2022/03/09 04:11:24;;;;;;;;;;;-1.30;99.90;;;;;;4961533;28;19921;-76
2022/03/09 04:13:50;;;;;;;;;;;-1.30;99.90;;;;;;4977716;28;19929;-76
2022/03/09 04:16:15;;;;;;;;;;;-1.30;99.90;;;;;;4977775;28;20478;-76
2022/03/09 04:18:41;;;;;;;;;;;-1.30;99.90;;;;;;4961399;28;20439;-76
2022/03/09 04:21:07;;;;;;;;;;;-1.30;99.90;;;;;;4960719;28;19976;-76
2022/03/09 04:23:32;;;;;;;;;;;-1.40;99.90;;;;;;4961382;28;19922;-76
2022/03/09 04:25:58;;;;;;;;;;;-1.30;99.90;;;;;;4961499;28;19929;-76
2022/03/09 04:28:23;;;;;;;;;;;-1.30;99.90;;;;;;4962095;28;20316;-76
2022/03/09 04:30:49;;;;;;;;;;;-1.30;99.90;;;;;;4962417;28;19929;-76
2022/03/09 04:33:14;;;;;;;;;;;-1.40;99.90;;;;;;4962809;28;19921;-76
2022/03/09 04:35:40;;;;;;;;;;;-1.40;99.90;;;;;;4962430;28;19922;-76
2022/03/09 04:38:05;;;;;;;;;;;-1.40;99.90;;;;;;4978051;28;19934;-76
2022/03/09 04:40:32;;;;;;;;;;;-1.40;99.90;;;;;;4962877;28;19922;-76
2022/03/09 04:42:58;;;;;;;;;;;-1.40;99.90;;;;;;4962794;28;19922;-76
2022/03/09 04:45:23;;;;;;;;;;;-1.40;99.90;;;;;;4962460;28;19926;-76
2022/03/09 04:47:51;;;;;;;;;;;-1.40;99.90;;;;;;4962882;28;19984;-76
2022/03/09 04:50:17;;;;;;;;;;;-1.30;99.90;;;;;;4962827;28;19929;-76
2022/03/09 04:52:42;;;;;;;;;;;-1.20;99.90;;;;;;4978581;28;19932;-76
2022/03/09 04:55:08;;;;;;;;;;;-1.20;99.90;;;;;;4962141;28;20346;-76
2022/03/09 04:57:37;;;;;;;;;;;-1.20;99.90;;;;;;4962327;28;20372;-76
2022/03/09 05:00:03;;;;;;;;;;;-1.30;99.90;;;;;;4964114;28;19921;-75
2022/03/09 05:02:29;;;;;;;;;;;-1.40;99.90;;;;;;4966573;28;19932;-76
2022/03/09 05:04:54;;;;;;;;;;;-1.40;99.90;;;;;;4965393;28;20028;-75
2022/03/09 05:07:20;;;;;;;;;;;-1.40;99.90;;;;;;4983957;28;19921;-76
2022/03/09 05:09:46;;;;;;;;;;;-1.40;99.90;;;;;;4985997;28;20341;-76
2022/03/09 05:12:11;;;;;;;;;;;-1.40;99.90;;;;;;4985995;28;20016;-75
2022/03/09 05:14:37;;;;;;;;;;;-1.40;99.90;;;;;;4984891;28;19932;-76
2022/03/09 05:17:07;;;;;;;;;;;-1.40;99.90;;;;;;4985662;28;19922;-76
2022/03/09 05:19:33;;;;;;;;;;;-1.50;99.90;;;;;;4969837;28;19921;-75
2022/03/09 05:21:58;;;;;;;;;;;-1.50;99.90;;;;;;4971217;28;20404;-76
2022/03/09 05:24:24;;;;;;;;;;;-1.60;99.90;;;;;;4968297;28;19925;-76
2022/03/09 05:26:50;;;;;;;;;;;-1.60;99.90;;;;;;4967648;28;19922;-76
2022/03/09 05:29:15;;;;;;;;;;;-1.60;99.90;;;;;;4963869;28;19922;-74
2022/03/09 05:31:42;;;;;;;;;;;-1.60;99.90;;;;;;4964801;28;20000;-76
2022/03/09 05:34:07;;;;;;;;;;;-1.70;99.90;;;;;;4979868;28;19922;-76
2022/03/09 05:36:33;;;;;;;;;;;-1.60;99.90;;;;;;4996162;28;20004;-77
2022/03/09 05:38:58;;;;;;;;;;;-1.70;99.90;;;;;;4980038;28;20240;-77
2022/03/09 05:41:24;;;;;;;;;;;-1.70;99.90;;;;;;4980201;28;19968;-76
2022/03/09 05:43:50;;;;;;;;;;;-1.70;99.90;;;;;;4979422;28;19925;-76
2022/03/09 05:46:16;;;;;;;;;;;-1.70;99.90;;;;;;4978755;28;19932;-77
2022/03/09 05:48:42;;;;;;;;;;;-1.70;99.90;;;;;;4979401;28;19976;-77
2022/03/09 05:51:07;;;;;;;;;;;-1.70;99.90;;;;;;4979035;28;19928;-77
2022/03/09 05:53:33;;;;;;;;;;;-1.60;99.90;;;;;;4978224;28;19921;-76
2022/03/09 05:55:59;;;;;;;;;;;-1.70;99.90;;;;;;4962429;28;20012;-76
2022/03/09 05:58:24;;;;;;;;;;;-1.60;99.90;;;;;;4962622;28;19921;-76
2022/03/09 06:00:50;;;;;;;;;;;-1.70;99.90;;;;;;4962144;28;19922;-77
2022/03/09 06:03:15;;;;;;;;;;;-1.70;99.90;;;;;;4962801;28;19926;-77
2022/03/09 06:05:41;;;;;;;;;;;-1.70;99.90;;;;;;4962888;28;19926;-76
2022/03/09 06:08:06;;;;;;;;;;;-1.60;99.90;;;;;;4962207;28;19922;-75
2022/03/09 06:10:32;;;;;;;;;;;-1.60;99.90;;;;;;4978867;28;19922;-77
2022/03/09 06:12:58;;;;;;;;;;;-1.50;99.90;;;;;;4978285;28;19925;-76
2022/03/09 06:15:24;;;;;;;;;;;-1.60;99.90;;;;;;4978310;28;19925;-77
2022/03/09 06:17:50;;;;;;;;;;;-1.50;99.90;;;;;;4977678;28;20016;-77
2022/03/09 06:20:17;;;;;;;;;;;-1.60;99.90;;;;;;4995104;28;19945;-77
2022/03/09 06:22:42;;;;;;;;;;;-1.60;99.90;;;;;;4978376;28;19928;-76
2022/03/09 06:25:08;;;;;;;;;;;-1.60;99.90;;;;;;4994324;28;19925;-76
2022/03/09 06:27:40;;;;;;;;;;;-1.60;99.90;;;;;;4977639;28;19984;-77
2022/03/09 06:30:06;;;;;;;;;;;-1.70;99.90;;;;;;4977423;28;19928;-76
2022/03/09 06:32:32;;;;;;;;;;;-1.70;99.90;;;;;;4961699;28;19993;-74
2022/03/09 06:34:57;;;;;;;;;;;-1.60;99.90;;;;;;4962112;28;20408;-77
2022/03/09 06:37:23;;;;;;;;;;;-1.60;99.90;;;;;;4961818;28;19922;-75
2022/03/09 06:39:48;;;;;;;;;;;-1.60;99.90;;;;;;4961575;28;19983;-76
2022/03/09 06:42:14;;;;;;;;;;;-1.60;99.90;;;;;;4961032;28;19922;-77
2022/03/09 06:44:39;;;;;;;;;;;-1.50;99.90;;;;;;4977387;28;19937;-77
2022/03/09 06:47:05;;;;;;;;;;;-1.50;99.90;;;;;;4977400;28;19976;-77
2022/03/09 06:49:30;;;;;;;;;;;-1.50;99.90;;;;;;4962395;28;19922;-77
2022/03/09 06:51:56;;;;;;;;;;;-1.50;99.90;;;;;;4961818;28;19922;-77
2022/03/09 06:54:21;;;;;;;;;;;-1.40;99.90;;;;;;4961068;28;19969;-76
2022/03/09 06:56:51;;;;;;;;;;;-1.40;99.90;;;;;;4961077;28;20350;-76
2022/03/09 06:59:17;;;;;;;;;;;-1.30;99.90;;;;;;4977991;28;20017;-77
2022/03/09 07:01:42;;;;;;;;;;;-1.20;99.90;;;;;;4977092;28;20017;-77
2022/03/09 07:04:08;;;;;;;;;;;-1.20;99.90;;;;;;4959467;28;19925;-74
2022/03/09 07:06:33;;;;;;;;;;;-1.10;99.90;;;;;;4976628;28;19948;-76
2022/03/09 07:08:59;;;;;;;;;;;-1.00;99.90;;;;;;4976986;28;19926;-77
2022/03/09 07:11:24;;;;;;;;;;;-0.90;99.90;;;;;;4974712;28;19976;-75
2022/03/09 07:13:50;;;;;;;;;;;-0.80;99.90;;;;;;4964788;28;20387;-75
2022/03/09 07:16:16;;;;;;;;;;;-0.70;99.90;;;;;;4961413;28;20048;-76
2022/03/09 07:18:42;;;;;;;;;;;-0.60;99.90;;;;;;4975878;28;20067;-75
2022/03/09 07:21:07;;;;;;;;;;;-0.40;99.90;;;;;;4976154;28;19921;-75
2022/03/09 07:23:33;;;;;;;;;;;-0.30;99.90;;;;;;4959679;28;19929;-75
2022/03/09 07:25:58;;;;;;;;;;;-0.20;99.90;;;;;;4975878;28;20419;-75
2022/03/09 07:28:24;;;;;;;;;;;-0.20;99.90;;;;;;4960138;28;19928;-75
2022/03/09 07:30:50;;;;;;;;;;;-0.10;99.90;;;;;;4956124;28;20053;-75
2022/03/09 07:33:15;;;;;;;;;;;0.00;99.90;;;;;;4976743;28;20303;-76
2022/03/09 07:35:41;;;;;;;;;;;0.20;99.90;;;;;;4959278;28;19922;-75
2022/03/09 07:38:07;;;;;;;;;;;0.30;99.90;;;;;;4959087;28;19975;-74
2022/03/09 07:40:32;;;;;;;;;;;0.50;99.90;;;;;;4958890;28;19933;-75
2022/03/09 07:42:58;;;;;;;;;;;0.50;99.90;;;;;;4958949;28;19925;-74
2022/03/09 07:45:23;;;;;;;;;;;0.80;99.90;;;;;;4974572;28;19926;-75
2022/03/09 07:47:49;;;;;;;;;;;0.80;99.90;;;;;;4959065;28;19922;-74
2022/03/09 07:50:15;;;;;;;;;;;0.90;99.90;;;;;;4959677;28;19976;-75
2022/03/09 07:52:40;;;;;;;;;;;1.10;99.90;;;;;;4959238;28;20336;-75
2022/03/09 07:55:06;;;;;;;;;;;1.20;99.90;;;;;;4991036;28;20381;-75
2022/03/09 07:57:32;;;;;;;;;;;1.30;99.90;;;;;;4974435;28;19945;-75
2022/03/09 07:59:57;;;;;;;;;;;1.40;99.90;;;;;;4975004;28;19922;-75
2022/03/09 08:02:23;;;;;;;;;;;1.50;99.90;;;;;;4958792;28;20012;-75
2022/03/09 08:04:48;;;;;;;;;;;1.70;99.90;;;;;;4974864;28;19930;-75
2022/03/09 08:07:14;;;;;;;;;;;1.90;99.90;;;;;;4959143;28;19922;-75
2022/03/09 08:09:39;;;;;;;;;;;2.00;99.90;;;;;;4959854;28;20388;-76
2022/03/09 08:12:05;;;;;;;;;;;2.10;99.90;;;;;;4974750;28;20355;-76
2022/03/09 08:14:31;;;;;;;;;;;2.20;99.90;;;;;;4958693;28;19921;-76
2022/03/09 08:16:56;;;;;;;;;;;2.30;99.90;;;;;;4959008;28;20295;-76
2022/03/09 08:19:22;;;;;;;;;;;2.30;99.90;;;;;;4975323;28;20257;-76
2022/03/09 08:21:47;;;;;;;;;;;2.40;99.90;;;;;;4959137;28;20390;-76
2022/03/09 08:24:12;;;;;;;;;;;2.50;99.90;;;;;;4958856;28;19930;-76
2022/03/09 08:26:38;;;;;;;;;;;2.60;99.90;;;;;;4974843;28;20419;-75
2022/03/09 08:29:04;;;;;;;;;;;2.70;99.90;;;;;;4974391;28;19961;-75
2022/03/09 08:31:29;;;;;;;;;;;2.80;99.90;;;;;;4974700;28;20024;-75
2022/03/09 08:33:58;;;;;;;;;;;2.90;99.90;;;;;;4973940;28;19976;-76
2022/03/09 08:36:29;;;;;;;;;;;3.00;99.90;;;;;;4994562;28;19922;-76
2022/03/09 08:38:55;;;;;;;;;;;3.20;99.80;;;;;;4961062;28;19922;-76
2022/03/09 08:41:24;;;;;;;;;;;3.20;99.90;;;;;;4961941;28;20380;-76
2022/03/09 08:43:50;;;;;;;;;;;3.40;99.60;;;;;;4962389;28;19976;-76
2022/03/09 08:46:15;;;;;;;;;;;3.60;97.30;;;;;;4977005;28;19925;-76
2022/03/09 08:48:41;;;;;;;;;;;3.80;95.20;;;;;;4962750;28;20281;-76
2022/03/09 08:51:07;;;;;;;;;;;3.90;94.80;;;;;;4994680;28;19921;-76
2022/03/09 08:53:33;;;;;;;;;;;4.10;93.00;;;;;;4978510;28;19922;-75
2022/03/09 08:55:59;;;;;;;;;;;4.20;92.50;;;;;;4961906;28;20598;-75
2022/03/09 08:58:25;;;;;;;;;;;4.40;90.50;;;;;;4962387;28;19984;-76
2022/03/09 09:00:50;;;;;;;;;;;4.50;91.40;;;;;;4978605;28;19921;-76
2022/03/09 09:03:16;;;;;;;;;;;4.70;92.90;;;;;;4978339;28;19928;-74
2022/03/09 09:05:45;;;;;;;;;;;4.80;92.80;;;;;;4977718;28;19932;-75
2022/03/09 09:08:11;;;;;;;;;;;4.90;92.90;;;;;;4962080;28;19928;-75
2022/03/09 09:10:36;;;;;;;;;;;5.10;88.10;;;;;;4964418;28;20341;-74
2022/03/09 09:13:03;;;;;;;;;;;5.20;90.10;;;;;;4960343;28;20000;-74
2022/03/09 09:15:29;;;;;;;;;;;5.40;90.10;;;;;;4977007;28;19929;-76
2022/03/09 09:17:58;;;;;;;;;;;5.90;90.80;;;;;;4976535;28;19921;-75
2022/03/09 09:20:27;;;;;;;;;;;7.20;72.40;;;;;;4962518;28;19921;-75
2022/03/09 09:22:53;;;;;;;;;;;8.40;71.10;;;;;;4961527;28;19957;-75
2022/03/09 09:25:27;;;;;;;;;;;9.50;61.40;;;;;;4977686;28;19956;-75
2022/03/09 09:27:54;;;;;;;;;;;10.40;60.00;;;;;;4956652;28;19929;-77
2022/03/09 09:30:20;;;;;;;;;;;11.20;59.70;;;;;;4959251;28;19973;-77
2022/03/09 09:32:49;;;;;;;;;;;11.90;57.50;;;;;;4977087;28;19984;-77
2022/03/09 09:35:15;;;;;;;;;;;12.60;57.10;;;;;;4978064;28;19922;-78
2022/03/09 09:37:43;;;;;;;;;;;13.20;57.20;;;;;;4978628;28;19945;-77
2022/03/09 09:40:13;;;;;;;;;;;13.60;52.80;;;;;;4977704;28;19930;-78
2022/03/09 09:42:39;;;;;;;;;;;14.00;52.40;;;;;;4978506;28;19921;-78
2022/03/09 09:45:05;;;;;;;;;;;14.50;55.80;;;;;;4977144;28;19926;-77
2022/03/09 09:47:31;;;;;;;;;;;14.60;49.90;;;;;;4978491;28;19922;-76
2022/03/09 09:49:58;;;;;;;;;;;14.90;49.40;;;;;;4977907;28;19922;-77
2022/03/09 09:52:24;;;;;;;;;;;15.30;47.60;;;;;;4962282;28;20274;-78
2022/03/09 09:54:54;;;;;;;;;;;15.60;43.90;;;;;;4962460;28;19921;-77
2022/03/09 09:57:20;;;;;;;;;;;15.70;43.10;;;;;;4961958;28;19925;-77
2022/03/09 09:59:46;;;;;;;;;;;15.80;44.50;;;;;;4977033;28;19948;-78
2022/03/09 10:02:12;;;;;;;;;;;15.90;43.90;;;;;;4962548;28;20164;-77
2022/03/09 10:04:41;;;;;;;;;;;16.20;43.40;;;;;;4960422;28;19929;-77
2022/03/09 10:07:07;;;;;;;;;;;16.60;44.90;;;;;;4983574;28;19922;-77
2022/03/09 10:09:39;;;;;;;;;;;16.60;45.60;;;;;;4973234;28;19921;-78
2022/03/09 10:12:06;;;;;;;;;;;16.80;44.80;;;;;;4976310;28;20299;-77
2022/03/09 10:14:48;;;;;;;;;;;17.00;47.40;;;;;;4960822;28;19951;-77
2022/03/09 10:17:15;;;;;;;;;;;17.20;45.20;;;;;;4960017;28;20376;-74
2022/03/09 10:19:50;;;;;;;;;;;17.40;44.50;;;;;;4960038;28;19969;-76
2022/03/09 10:22:48;;;;;;;;;;;17.60;42.70;;;;;;4960222;28;19921;-76
2022/03/09 10:25:23;;;;;;;;;;;17.60;41.10;;;;;;4954382;28;19926;-77
2022/03/09 10:27:57;;;;;;;;;;;17.60;41.10;;;;;;4957400;28;19984;-77
2022/03/09 10:30:31;;;;;;;;;;;17.70;41.30;;;;;;4941738;28;20299;-77
2022/03/09 10:33:40;;;;;;;;;;;17.70;39.60;;;;;;4942418;28;19926;-77
2022/03/09 10:36:16;;;;;;;;;;;17.50;42.30;;;;;;4973678;28;19976;-76
2022/03/09 10:39:19;;;;;;;;;;;17.70;41.00;;;;;;4957246;28;19929;-77
2022/03/09 10:41:58;;;;;;;;;;;18.00;41.50;;;;;;4957043;28;19972;-77
2022/03/09 10:44:46;;;;;;;;;;;18.40;40.30;;;;;;4966566;28;19927;-77
2022/03/09 10:47:34;;;;;;;;;;;18.70;40.40;;;;;;4976913;28;19922;-77
2022/03/09 10:50:32;;;;;;;;;;;18.90;40.20;;;;;;4976715;28;19925;-75
2022/03/09 10:53:08;;;;;;;;;;;19.10;41.10;;;;;;4910902;28;19929;-75
2022/03/09 10:59:27;;;;;;;;;;;19.30;37.10;;;;;;4979922;23;19926;-74
2022/03/09 11:02:07;;;;;;;;;;;19.30;38.20;;;;;;4935401;29;19922;-73
2022/03/09 11:04:33;;;;;;;;;;;19.40;38.70;;;;;;4933856;29;20021;-72
2022/03/09 11:06:59;;;;;;;;;;;19.60;37.00;;;;;;4918859;29;20369;-72
2022/03/09 11:09:24;;;;;;;;;;;19.80;36.20;;;;;;4939004;29;19926;-73
2022/03/09 11:11:50;;;;;;;;;;;19.80;40.80;;;;;;4936829;29;19978;-71
2022/03/09 11:14:16;;;;;;;;;;;20.00;38.20;;;;;;4940926;29;19930;-74
2022/03/09 11:16:42;;;;;;;;;;;19.90;39.40;;;;;;4937464;29;19922;-72
2022/03/09 11:19:09;;;;;;;;;;;20.00;37.30;;;;;;4957720;28;19969;-74
2022/03/09 11:21:35;;;;;;;;;;;20.10;37.10;;;;;;4953786;28;19933;-74
2022/03/09 11:24:04;;;;;;;;;;;20.10;37.50;;;;;;4967932;28;20001;-74
2022/03/09 11:26:30;;;;;;;;;;;20.00;35.10;;;;;;4946275;29;19922;-73
2022/03/09 11:29:06;;;;;;;;;;;20.00;36.00;;;;;;4942115;28;19942;-73
2022/03/09 11:31:48;;;;;;;;;;;20.00;35.80;;;;;;4961004;28;19922;-73
2022/03/09 11:34:33;;;;;;;;;;;20.30;36.40;;;;;;4954119;28;19969;-75
2022/03/09 11:37:00;;;;;;;;;;;20.40;37.10;;;;;;4953231;28;20397;-74
2022/03/09 11:39:26;;;;;;;;;;;20.40;38.10;;;;;;4952671;29;19922;-74
2022/03/09 11:42:11;;;;;;;;;;;20.60;34.20;;;;;;4952400;29;20030;-74
2022/03/09 11:44:39;;;;;;;;;;;20.70;36.30;;;;;;4952603;29;19934;-74
2022/03/09 11:47:04;;;;;;;;;;;20.80;35.30;;;;;;4952866;29;19984;-74
2022/03/09 11:49:31;;;;;;;;;;;20.30;34.20;;;;;;4953090;29;19922;-74
2022/03/09 11:52:10;;;;;;;;;;;20.30;35.40;;;;;;4952676;29;19961;-74
2022/03/09 11:54:43;;;;;;;;;;;20.30;36.20;;;;;;4952794;29;19969;-74
2022/03/09 11:57:10;;;;;;;;;;;20.30;35.70;;;;;;4917907;29;19934;-74
2022/03/09 11:59:36;;;;;;;;;;;20.70;34.60;;;;;;4938203;29;19930;-74
2022/03/09 12:02:11;;;;;;;;;;;21.00;34.70;;;;;;4953248;29;19922;-74
2022/03/09 12:04:40;;;;;;;;;;;21.10;34.20;;;;;;4918825;29;19977;-73
2022/03/09 12:07:09;;;;;;;;;;;20.90;36.10;;;;;;4949620;29;19923;-73
2022/03/09 12:09:53;;;;;;;;;;;20.80;34.10;;;;;;4937624;29;19931;-73
2022/03/09 12:12:18;;;;;;;;;;;21.10;36.20;;;;;;4952988;29;19923;-73
2022/03/09 12:15:02;;;;;;;;;;;21.20;33.40;;;;;;4952879;29;19934;-73
2022/03/09 12:17:29;;;;;;;;;;;21.10;33.50;;;;;;4952818;28;19922;-73
2022/03/09 12:20:13;;;;;;;;;;;20.90;34.00;;;;;;4933698;29;19933;-73
2022/03/09 12:22:57;;;;;;;;;;;20.80;34.10;;;;;;4945923;29;20021;-74
2022/03/09 12:25:34;;;;;;;;;;;20.90;32.90;;;;;;4933391;29;19933;-73
2022/03/09 12:28:19;;;;;;;;;;;21.00;33.80;;;;;;4949728;28;19922;-73
2022/03/09 12:30:47;;;;;;;;;;;21.00;33.40;;;;;;4952287;28;19926;-73
2022/03/09 12:33:27;;;;;;;;;;;20.90;32.80;;;;;;4952220;29;20397;-73
2022/03/09 12:35:53;;;;;;;;;;;20.80;33.20;;;;;;4953777;28;19929;-73
2022/03/09 12:38:19;;;;;;;;;;;20.90;33.90;;;;;;4944532;29;19922;-73
2022/03/09 12:41:00;;;;;;;;;;;21.10;33.90;;;;;;4955220;28;20397;-73
2022/03/09 12:43:26;;;;;;;;;;;21.00;32.90;;;;;;4952629;29;19937;-73
2022/03/09 12:45:53;;;;;;;;;;;20.90;35.00;;;;;;4952866;29;19926;-73
2022/03/09 12:48:19;;;;;;;;;;;21.20;33.80;;;;;;4936350;29;19922;-73
2022/03/09 12:50:45;;;;;;;;;;;21.30;33.20;;;;;;4952484;29;20013;-73
2022/03/09 12:53:18;;;;;;;;;;;21.10;33.20;;;;;;4936823;29;20002;-73
2022/03/09 12:55:47;;;;;;;;;;;21.40;34.30;;;;;;4952215;28;19922;-73
2022/03/09 12:58:20;;;;;;;;;;;21.80;35.30;;;;;;4948237;29;19981;-74
2022/03/09 13:00:46;;;;;;;;;;;21.80;33.30;;;;;;4952076;29;19939;-74
2022/03/09 13:03:11;;;;;;;;;;;21.70;31.80;;;;;;4951759;29;19923;-73
2022/03/09 13:05:39;;;;;;;;;;;21.70;32.30;;;;;;4951937;28;19969;-73
2022/03/09 13:08:08;;;;;;;;;;;21.70;32.60;;;;;;4935812;29;19939;-73
2022/03/09 13:10:41;;;;;;;;;;;21.90;33.60;;;;;;4952263;29;19980;-73
2022/03/09 13:13:06;;;;;;;;;;;22.00;30.80;;;;;;4951948;28;19923;-73
2022/03/09 13:15:36;;;;;;;;;;;22.10;32.80;;;;;;4936087;29;19953;-73
2022/03/09 13:18:02;;;;;;;;;;;22.20;31.10;;;;;;4936545;29;19938;-73
2022/03/09 13:20:27;;;;;;;;;;;22.00;30.90;;;;;;4936536;29;19922;-74
2022/03/09 13:22:53;;;;;;;;;;;21.90;31.30;;;;;;4939113;29;20013;-73
2022/03/09 13:25:27;;;;;;;;;;;22.10;32.30;;;;;;4955359;29;19931;-75
2022/03/09 13:27:59;;;;;;;;;;;22.20;30.80;;;;;;4955743;28;19923;-73
2022/03/09 13:30:28;;;;;;;;;;;22.10;31.30;;;;;;4940466;29;20262;-73
2022/03/09 13:32:54;;;;;;;;;;;22.10;32.00;;;;;;4955139;29;19923;-74
2022/03/09 13:35:21;;;;;;;;;;;21.90;31.60;;;;;;4955133;29;20009;-73
2022/03/09 13:38:02;;;;;;;;;;;21.90;32.30;;;;;;4955400;29;20254;-73
2022/03/09 13:40:28;;;;;;;;;;;22.00;33.60;;;;;;4955409;29;19950;-74
2022/03/09 13:42:54;;;;;;;;;;;22.20;32.70;;;;;;4955830;29;19922;-73
2022/03/09 13:45:26;;;;;;;;;;;22.20;33.10;;;;;;4955247;29;20025;-74
2022/03/09 13:47:56;;;;;;;;;;;22.00;30.90;;;;;;4955441;28;19977;-73
2022/03/09 13:50:24;;;;;;;;;;;21.80;31.50;;;;;;4954954;29;19923;-73
2022/03/09 13:52:51;;;;;;;;;;;21.50;32.30;;;;;;4955205;29;19923;-73
2022/03/09 13:55:18;;;;;;;;;;;21.30;32.50;;;;;;4955320;29;20408;-73
2022/03/09 13:57:43;;;;;;;;;;;21.30;33.20;;;;;;4954527;28;19997;-73
2022/03/09 14:00:21;;;;;;;;;;;21.20;32.30;;;;;;4954867;29;20512;-73
2022/03/09 14:02:47;;;;;;;;;;;21.20;32.50;;;;;;4956384;29;19923;-73
2022/03/09 14:05:12;;;;;;;;;;;21.00;32.80;;;;;;4955035;28;19974;-73
2022/03/09 14:07:39;;;;;;;;;;;21.00;32.70;;;;;;4954610;28;20010;-72
2022/03/09 14:10:12;;;;;;;;;;;21.10;33.80;;;;;;4938666;29;19981;-73
2022/03/09 14:12:42;;;;;;;;;;;21.00;31.90;;;;;;4954650;29;19975;-73
2022/03/09 14:15:08;;;;;;;;;;;20.70;32.20;;;;;;4951144;29;19930;-73
2022/03/09 14:17:39;;;;;;;;;;;20.40;33.40;;;;;;4955028;28;20005;-73
2022/03/09 14:20:07;;;;;;;;;;;20.40;34.90;;;;;;4955442;28;19933;-74
2022/03/09 14:22:44;;;;;;;;;;;20.30;34.30;;;;;;4953556;29;19972;-75
2022/03/09 14:25:13;;;;;;;;;;;20.10;35.20;;;;;;4954548;28;19926;-74
2022/03/09 14:27:41;;;;;;;;;;;19.80;35.10;;;;;;4950952;28;19931;-74
2022/03/09 14:30:09;;;;;;;;;;;19.70;32.90;;;;;;4951409;29;19922;-74